sensor_id;sensor_type;location;lat;lon;timestamp;P1;durP1;ratioP1;P2;durP2;ratioP2
55813;SDS011;65494;42.818;0.404;2023-09-08T00:00:29;9.27;;;3.70;;
55813;SDS011;65494;42.818;0.404;2023-09-08T00:02:55;11.25;;;3.47;;
55813;SDS011;65494;42.818;0.404;2023-09-08T00:05:21;9.50;;;3.63;;
55813;SDS011;65494;42.818;0.404;2023-09-08T00:07:48;10.75;;;3.53;;
55813;SDS011;65494;42.818;0.404;2023-09-08T00:10:15;8.93;;;3.15;;
55813;SDS011;65494;42.818;0.404;2023-09-08T00:12:41;9.15;;;2.80;;
55813;SDS011;65494;42.818;0.404;2023-09-08T00:15:07;10.40;;;3.40;;
55813;SDS011;65494;42.818;0.404;2023-09-08T00:17:34;10.32;;;3.35;;
55813;SDS011;65494;42.818;0.404;2023-09-08T00:20:01;11.30;;;3.30;;
55813;SDS011;65494;42.818;0.404;2023-09-08T00:22:32;13.63;;;3.97;;
55813;SDS011;65494;42.818;0.404;2023-09-08T00:24:58;15.88;;;3.72;;
55813;SDS011;65494;42.818;0.404;2023-09-08T00:27:25;13.38;;;3.70;;
55813;SDS011;65494;42.818;0.404;2023-09-08T00:29:51;10.43;;;4.07;;
55813;SDS011;65494;42.818;0.404;2023-09-08T00:32:17;8.30;;;3.63;;
55813;SDS011;65494;42.818;0.404;2023-09-08T00:34:43;10.13;;;3.40;;
55813;SDS011;65494;42.818;0.404;2023-09-08T00:37:09;13.30;;;3.90;;
55813;SDS011;65494;42.818;0.404;2023-09-08T00:39:35;15.18;;;3.65;;
55813;SDS011;65494;42.818;0.404;2023-09-08T00:42:02;7.63;;;3.13;;
55813;SDS011;65494;42.818;0.404;2023-09-08T00:44:28;6.85;;;3.20;;
55813;SDS011;65494;42.818;0.404;2023-09-08T00:46:54;12.32;;;4.35;;
55813;SDS011;65494;42.818;0.404;2023-09-08T00:49:20;16.45;;;3.80;;
55813;SDS011;65494;42.818;0.404;2023-09-08T00:51:46;11.20;;;3.15;;
55813;SDS011;65494;42.818;0.404;2023-09-08T00:54:12;13.93;;;4.40;;
55813;SDS011;65494;42.818;0.404;2023-09-08T00:56:38;10.32;;;4.00;;
55813;SDS011;65494;42.818;0.404;2023-09-08T00:59:05;10.90;;;3.70;;
55813;SDS011;65494;42.818;0.404;2023-09-08T01:01:31;11.95;;;3.63;;
55813;SDS011;65494;42.818;0.404;2023-09-08T01:04:00;13.93;;;4.10;;
55813;SDS011;65494;42.818;0.404;2023-09-08T01:06:26;9.20;;;3.70;;
55813;SDS011;65494;42.818;0.404;2023-09-08T01:08:53;16.20;;;4.15;;
55813;SDS011;65494;42.818;0.404;2023-09-08T01:11:20;11.98;;;3.38;;
55813;SDS011;65494;42.818;0.404;2023-09-08T01:13:46;9.57;;;3.72;;
55813;SDS011;65494;42.818;0.404;2023-09-08T01:16:13;10.45;;;4.20;;
55813;SDS011;65494;42.818;0.404;2023-09-08T01:18:39;13.93;;;4.20;;
55813;SDS011;65494;42.818;0.404;2023-09-08T01:21:12;14.38;;;3.75;;
55813;SDS011;65494;42.818;0.404;2023-09-08T01:26:13;9.15;;;3.25;;
55813;SDS011;65494;42.818;0.404;2023-09-08T01:28:43;10.48;;;4.10;;
55813;SDS011;65494;42.818;0.404;2023-09-08T01:31:10;11.02;;;4.25;;
55813;SDS011;65494;42.818;0.404;2023-09-08T01:33:37;14.90;;;3.70;;
55813;SDS011;65494;42.818;0.404;2023-09-08T01:36:03;12.65;;;3.50;;
55813;SDS011;65494;42.818;0.404;2023-09-08T01:38:29;9.82;;;3.78;;
55813;SDS011;65494;42.818;0.404;2023-09-08T01:40:55;12.10;;;3.70;;
55813;SDS011;65494;42.818;0.404;2023-09-08T01:43:21;8.50;;;3.75;;
55813;SDS011;65494;42.818;0.404;2023-09-08T01:45:47;11.75;;;4.30;;
55813;SDS011;65494;42.818;0.404;2023-09-08T01:48:13;14.45;;;4.03;;
55813;SDS011;65494;42.818;0.404;2023-09-08T01:50:40;12.20;;;3.60;;
55813;SDS011;65494;42.818;0.404;2023-09-08T01:53:06;12.02;;;3.97;;
55813;SDS011;65494;42.818;0.404;2023-09-08T01:55:32;13.30;;;3.75;;
55813;SDS011;65494;42.818;0.404;2023-09-08T01:57:58;9.93;;;3.45;;
55813;SDS011;65494;42.818;0.404;2023-09-08T02:00:24;12.15;;;3.40;;
55813;SDS011;65494;42.818;0.404;2023-09-08T02:02:50;8.27;;;3.35;;
55813;SDS011;65494;42.818;0.404;2023-09-08T02:05:17;13.95;;;4.10;;
55813;SDS011;65494;42.818;0.404;2023-09-08T02:07:43;11.93;;;4.28;;
55813;SDS011;65494;42.818;0.404;2023-09-08T02:10:11;13.43;;;4.13;;
55813;SDS011;65494;42.818;0.404;2023-09-08T02:12:57;14.73;;;4.13;;
55813;SDS011;65494;42.818;0.404;2023-09-08T02:15:24;9.75;;;3.80;;
55813;SDS011;65494;42.818;0.404;2023-09-08T02:17:54;12.15;;;4.00;;
55813;SDS011;65494;42.818;0.404;2023-09-08T02:20:29;10.10;;;3.63;;
55813;SDS011;65494;42.818;0.404;2023-09-08T02:22:57;15.35;;;4.15;;
55813;SDS011;65494;42.818;0.404;2023-09-08T02:25:23;14.15;;;3.65;;
55813;SDS011;65494;42.818;0.404;2023-09-08T02:27:53;10.07;;;3.80;;
55813;SDS011;65494;42.818;0.404;2023-09-08T02:30:19;16.02;;;4.20;;
55813;SDS011;65494;42.818;0.404;2023-09-08T02:32:45;11.63;;;4.25;;
55813;SDS011;65494;42.818;0.404;2023-09-08T02:35:17;13.77;;;4.05;;
55813;SDS011;65494;42.818;0.404;2023-09-08T02:37:48;14.20;;;4.53;;
55813;SDS011;65494;42.818;0.404;2023-09-08T02:40:14;11.25;;;4.60;;
55813;SDS011;65494;42.818;0.404;2023-09-08T02:42:43;12.50;;;4.57;;
55813;SDS011;65494;42.818;0.404;2023-09-08T02:45:56;8.95;;;3.92;;
55813;SDS011;65494;42.818;0.404;2023-09-08T02:54:25;15.40;;;4.65;;
55813;SDS011;65494;42.818;0.404;2023-09-08T02:56:55;10.38;;;4.78;;
55813;SDS011;65494;42.818;0.404;2023-09-08T02:59:24;16.35;;;4.43;;
55813;SDS011;65494;42.818;0.404;2023-09-08T03:01:53;15.55;;;4.07;;
55813;SDS011;65494;42.818;0.404;2023-09-08T03:05:02;10.40;;;4.20;;
55813;SDS011;65494;42.818;0.404;2023-09-08T03:07:28;15.23;;;4.35;;
55813;SDS011;65494;42.818;0.404;2023-09-08T03:09:56;15.38;;;4.20;;
55813;SDS011;65494;42.818;0.404;2023-09-08T03:12:57;16.52;;;5.35;;
55813;SDS011;65494;42.818;0.404;2023-09-08T03:15:49;14.63;;;4.35;;
55813;SDS011;65494;42.818;0.404;2023-09-08T03:18:48;11.07;;;3.83;;
55813;SDS011;65494;42.818;0.404;2023-09-08T03:24:13;13.93;;;4.72;;
55813;SDS011;65494;42.818;0.404;2023-09-08T03:29:45;14.45;;;4.05;;
55813;SDS011;65494;42.818;0.404;2023-09-08T03:32:12;11.40;;;4.32;;
55813;SDS011;65494;42.818;0.404;2023-09-08T03:34:45;12.43;;;4.32;;
55813;SDS011;65494;42.818;0.404;2023-09-08T03:37:15;11.75;;;4.40;;
55813;SDS011;65494;42.818;0.404;2023-09-08T03:39:43;13.18;;;3.75;;
55813;SDS011;65494;42.818;0.404;2023-09-08T03:42:26;9.65;;;3.70;;
55813;SDS011;65494;42.818;0.404;2023-09-08T03:44:58;9.93;;;4.53;;
55813;SDS011;65494;42.818;0.404;2023-09-08T03:50:12;10.80;;;4.93;;
55813;SDS011;65494;42.818;0.404;2023-09-08T03:52:42;13.27;;;4.00;;
55813;SDS011;65494;42.818;0.404;2023-09-08T03:55:08;15.52;;;4.13;;
55813;SDS011;65494;42.818;0.404;2023-09-08T03:57:37;8.80;;;3.88;;
55813;SDS011;65494;42.818;0.404;2023-09-08T04:00:04;15.00;;;4.72;;
55813;SDS011;65494;42.818;0.404;2023-09-08T04:02:32;10.07;;;4.72;;
55813;SDS011;65494;42.818;0.404;2023-09-08T04:04:58;16.25;;;4.28;;
55813;SDS011;65494;42.818;0.404;2023-09-08T04:07:33;10.05;;;3.88;;
55813;SDS011;65494;42.818;0.404;2023-09-08T04:10:30;10.13;;;3.83;;
55813;SDS011;65494;42.818;0.404;2023-09-08T04:12:56;15.00;;;4.13;;
55813;SDS011;65494;42.818;0.404;2023-09-08T04:15:24;13.25;;;3.78;;
55813;SDS011;65494;42.818;0.404;2023-09-08T04:17:50;9.25;;;3.70;;
55813;SDS011;65494;42.818;0.404;2023-09-08T04:20:16;10.90;;;4.28;;
55813;SDS011;65494;42.818;0.404;2023-09-08T04:22:42;12.50;;;4.25;;
55813;SDS011;65494;42.818;0.404;2023-09-08T04:25:09;10.30;;;4.45;;
55813;SDS011;65494;42.818;0.404;2023-09-08T04:27:36;9.07;;;3.58;;
55813;SDS011;65494;42.818;0.404;2023-09-08T04:30:05;12.38;;;4.38;;
55813;SDS011;65494;42.818;0.404;2023-09-08T04:32:50;11.15;;;3.55;;
55813;SDS011;65494;42.818;0.404;2023-09-08T04:35:32;9.88;;;3.70;;
55813;SDS011;65494;42.818;0.404;2023-09-08T04:37:58;11.82;;;3.92;;
55813;SDS011;65494;42.818;0.404;2023-09-08T04:40:24;8.70;;;3.47;;
55813;SDS011;65494;42.818;0.404;2023-09-08T04:42:52;11.80;;;3.97;;
55813;SDS011;65494;42.818;0.404;2023-09-08T04:48:21;10.52;;;4.25;;
55813;SDS011;65494;42.818;0.404;2023-09-08T04:58:00;12.38;;;4.18;;
55813;SDS011;65494;42.818;0.404;2023-09-08T05:03:57;11.38;;;3.90;;
55813;SDS011;65494;42.818;0.404;2023-09-08T05:06:23;12.10;;;4.20;;
55813;SDS011;65494;42.818;0.404;2023-09-08T05:12:32;10.40;;;4.72;;
55813;SDS011;65494;42.818;0.404;2023-09-08T05:15:08;9.02;;;3.97;;
55813;SDS011;65494;42.818;0.404;2023-09-08T05:17:54;11.45;;;4.45;;
55813;SDS011;65494;42.818;0.404;2023-09-08T05:26:40;15.30;;;4.20;;
55813;SDS011;65494;42.818;0.404;2023-09-08T05:29:08;11.00;;;4.65;;
55813;SDS011;65494;42.818;0.404;2023-09-08T05:31:40;14.73;;;3.97;;
55813;SDS011;65494;42.818;0.404;2023-09-08T05:34:34;11.65;;;3.83;;
55813;SDS011;65494;42.818;0.404;2023-09-08T05:37:45;11.40;;;4.18;;
55813;SDS011;65494;42.818;0.404;2023-09-08T05:40:12;10.75;;;3.95;;
55813;SDS011;65494;42.818;0.404;2023-09-08T05:45:12;10.82;;;4.25;;
55813;SDS011;65494;42.818;0.404;2023-09-08T05:47:51;10.40;;;4.22;;
55813;SDS011;65494;42.818;0.404;2023-09-08T05:50:17;10.25;;;3.75;;
55813;SDS011;65494;42.818;0.404;2023-09-08T05:52:44;10.02;;;4.00;;
55813;SDS011;65494;42.818;0.404;2023-09-08T05:55:12;10.07;;;4.03;;
55813;SDS011;65494;42.818;0.404;2023-09-08T05:57:39;13.43;;;4.18;;
55813;SDS011;65494;42.818;0.404;2023-09-08T06:00:09;12.32;;;4.20;;
55813;SDS011;65494;42.818;0.404;2023-09-08T06:02:38;13.07;;;4.95;;
55813;SDS011;65494;42.818;0.404;2023-09-08T06:05:23;17.33;;;5.38;;
55813;SDS011;65494;42.818;0.404;2023-09-08T06:07:49;12.02;;;4.22;;
55813;SDS011;65494;42.818;0.404;2023-09-08T06:10:15;8.65;;;4.03;;
55813;SDS011;65494;42.818;0.404;2023-09-08T06:12:41;12.15;;;4.18;;
55813;SDS011;65494;42.818;0.404;2023-09-08T06:15:08;11.88;;;4.18;;
55813;SDS011;65494;42.818;0.404;2023-09-08T06:17:34;9.40;;;3.08;;
55813;SDS011;65494;42.818;0.404;2023-09-08T06:20:01;9.15;;;3.42;;
55813;SDS011;65494;42.818;0.404;2023-09-08T06:22:27;10.82;;;4.10;;
55813;SDS011;65494;42.818;0.404;2023-09-08T06:24:53;11.05;;;4.13;;
55813;SDS011;65494;42.818;0.404;2023-09-08T06:27:19;9.88;;;3.50;;
55813;SDS011;65494;42.818;0.404;2023-09-08T06:29:45;9.15;;;4.30;;
55813;SDS011;65494;42.818;0.404;2023-09-08T06:32:11;11.15;;;3.88;;
55813;SDS011;65494;42.818;0.404;2023-09-08T06:34:37;10.98;;;3.65;;
55813;SDS011;65494;42.818;0.404;2023-09-08T06:37:03;11.02;;;3.05;;
55813;SDS011;65494;42.818;0.404;2023-09-08T06:39:29;13.43;;;3.92;;
55813;SDS011;65494;42.818;0.404;2023-09-08T06:41:55;10.00;;;3.63;;
55813;SDS011;65494;42.818;0.404;2023-09-08T06:44:21;21.23;;;5.18;;
55813;SDS011;65494;42.818;0.404;2023-09-08T06:46:47;9.52;;;3.30;;
55813;SDS011;65494;42.818;0.404;2023-09-08T06:49:14;9.77;;;3.22;;
55813;SDS011;65494;42.818;0.404;2023-09-08T06:51:40;11.93;;;3.92;;
55813;SDS011;65494;42.818;0.404;2023-09-08T06:54:06;8.32;;;3.20;;
55813;SDS011;65494;42.818;0.404;2023-09-08T06:56:32;10.05;;;3.10;;
55813;SDS011;65494;42.818;0.404;2023-09-08T06:58:58;10.38;;;3.75;;
55813;SDS011;65494;42.818;0.404;2023-09-08T07:01:24;10.20;;;3.25;;
55813;SDS011;65494;42.818;0.404;2023-09-08T07:03:50;9.10;;;3.20;;
55813;SDS011;65494;42.818;0.404;2023-09-08T07:06:16;11.70;;;3.30;;
55813;SDS011;65494;42.818;0.404;2023-09-08T07:08:42;9.27;;;3.58;;
55813;SDS011;65494;42.818;0.404;2023-09-08T07:11:09;10.43;;;3.08;;
55813;SDS011;65494;42.818;0.404;2023-09-08T07:13:35;9.60;;;3.50;;
55813;SDS011;65494;42.818;0.404;2023-09-08T07:16:01;7.13;;;3.67;;
55813;SDS011;65494;42.818;0.404;2023-09-08T07:18:27;9.73;;;3.45;;
55813;SDS011;65494;42.818;0.404;2023-09-08T07:20:53;7.53;;;3.10;;
55813;SDS011;65494;42.818;0.404;2023-09-08T07:23:19;11.82;;;3.30;;
55813;SDS011;65494;42.818;0.404;2023-09-08T07:25:48;7.07;;;3.05;;
55813;SDS011;65494;42.818;0.404;2023-09-08T07:28:15;17.20;;;3.60;;
55813;SDS011;65494;42.818;0.404;2023-09-08T07:30:41;9.30;;;2.72;;
55813;SDS011;65494;42.818;0.404;2023-09-08T07:33:07;9.07;;;3.25;;
55813;SDS011;65494;42.818;0.404;2023-09-08T07:35:37;10.68;;;3.55;;
55813;SDS011;65494;42.818;0.404;2023-09-08T07:38:03;15.05;;;3.40;;
55813;SDS011;65494;42.818;0.404;2023-09-08T07:40:31;15.60;;;3.42;;
55813;SDS011;65494;42.818;0.404;2023-09-08T07:42:57;12.50;;;3.13;;
55813;SDS011;65494;42.818;0.404;2023-09-08T07:45:23;8.68;;;2.38;;
55813;SDS011;65494;42.818;0.404;2023-09-08T07:47:49;9.13;;;2.63;;
55813;SDS011;65494;42.818;0.404;2023-09-08T07:52:45;7.22;;;2.42;;
55813;SDS011;65494;42.818;0.404;2023-09-08T07:55:11;12.02;;;3.00;;
55813;SDS011;65494;42.818;0.404;2023-09-08T07:57:37;8.27;;;2.60;;
55813;SDS011;65494;42.818;0.404;2023-09-08T08:00:04;9.75;;;2.85;;
55813;SDS011;65494;42.818;0.404;2023-09-08T08:02:30;9.43;;;2.70;;
55813;SDS011;65494;42.818;0.404;2023-09-08T08:04:56;16.23;;;2.72;;
55813;SDS011;65494;42.818;0.404;2023-09-08T08:07:22;10.95;;;3.03;;
55813;SDS011;65494;42.818;0.404;2023-09-08T08:09:48;10.20;;;2.63;;
55813;SDS011;65494;42.818;0.404;2023-09-08T08:12:14;10.30;;;2.60;;
55813;SDS011;65494;42.818;0.404;2023-09-08T08:14:40;9.27;;;2.72;;
55813;SDS011;65494;42.818;0.404;2023-09-08T08:17:06;12.50;;;2.50;;
55813;SDS011;65494;42.818;0.404;2023-09-08T08:19:32;12.52;;;2.65;;
55813;SDS011;65494;42.818;0.404;2023-09-08T08:21:58;11.88;;;2.67;;
55813;SDS011;65494;42.818;0.404;2023-09-08T08:24:25;9.68;;;2.60;;
55813;SDS011;65494;42.818;0.404;2023-09-08T08:26:51;12.00;;;2.70;;
55813;SDS011;65494;42.818;0.404;2023-09-08T08:29:17;12.75;;;2.60;;
55813;SDS011;65494;42.818;0.404;2023-09-08T08:31:43;8.95;;;2.50;;
55813;SDS011;65494;42.818;0.404;2023-09-08T08:34:09;11.18;;;3.03;;
55813;SDS011;65494;42.818;0.404;2023-09-08T08:36:35;14.57;;;2.47;;
55813;SDS011;65494;42.818;0.404;2023-09-08T08:39:01;15.60;;;2.90;;
55813;SDS011;65494;42.818;0.404;2023-09-08T08:41:28;12.25;;;2.65;;
55813;SDS011;65494;42.818;0.404;2023-09-08T08:43:54;9.63;;;2.88;;
55813;SDS011;65494;42.818;0.404;2023-09-08T08:46:21;13.77;;;2.90;;
55813;SDS011;65494;42.818;0.404;2023-09-08T08:48:48;10.30;;;2.50;;
55813;SDS011;65494;42.818;0.404;2023-09-08T08:51:17;11.93;;;2.88;;
55813;SDS011;65494;42.818;0.404;2023-09-08T08:53:43;17.08;;;2.53;;
55813;SDS011;65494;42.818;0.404;2023-09-08T08:56:10;9.55;;;2.08;;
55813;SDS011;65494;42.818;0.404;2023-09-08T08:58:39;11.23;;;2.75;;
55813;SDS011;65494;42.818;0.404;2023-09-08T09:01:06;10.40;;;2.30;;
55813;SDS011;65494;42.818;0.404;2023-09-08T09:03:32;11.95;;;2.40;;
55813;SDS011;65494;42.818;0.404;2023-09-08T09:05:59;9.60;;;2.92;;
55813;SDS011;65494;42.818;0.404;2023-09-08T09:08:26;11.10;;;2.30;;
55813;SDS011;65494;42.818;0.404;2023-09-08T09:10:52;17.33;;;3.05;;
55813;SDS011;65494;42.818;0.404;2023-09-08T09:13:18;13.85;;;2.95;;
55813;SDS011;65494;42.818;0.404;2023-09-08T09:15:45;14.13;;;3.10;;
55813;SDS011;65494;42.818;0.404;2023-09-08T09:18:11;11.45;;;2.78;;
55813;SDS011;65494;42.818;0.404;2023-09-08T09:20:38;12.77;;;3.20;;
55813;SDS011;65494;42.818;0.404;2023-09-08T09:23:05;20.73;;;2.58;;
55813;SDS011;65494;42.818;0.404;2023-09-08T09:25:31;13.57;;;2.90;;
55813;SDS011;65494;42.818;0.404;2023-09-08T09:27:58;10.45;;;2.40;;
55813;SDS011;65494;42.818;0.404;2023-09-08T09:30:25;10.55;;;2.67;;
55813;SDS011;65494;42.818;0.404;2023-09-08T09:33:04;11.10;;;2.50;;
55813;SDS011;65494;42.818;0.404;2023-09-08T09:35:43;12.35;;;2.45;;
55813;SDS011;65494;42.818;0.404;2023-09-08T09:38:10;11.43;;;2.30;;
55813;SDS011;65494;42.818;0.404;2023-09-08T09:40:37;8.95;;;2.78;;
55813;SDS011;65494;42.818;0.404;2023-09-08T09:43:04;11.70;;;2.40;;
55813;SDS011;65494;42.818;0.404;2023-09-08T09:45:31;11.05;;;2.53;;
55813;SDS011;65494;42.818;0.404;2023-09-08T09:47:57;9.85;;;2.38;;
55813;SDS011;65494;42.818;0.404;2023-09-08T09:50:30;12.38;;;2.38;;
55813;SDS011;65494;42.818;0.404;2023-09-08T09:52:58;13.30;;;2.30;;
55813;SDS011;65494;42.818;0.404;2023-09-08T09:55:25;18.63;;;4.05;;
55813;SDS011;65494;42.818;0.404;2023-09-08T09:57:53;12.02;;;2.42;;
55813;SDS011;65494;42.818;0.404;2023-09-08T10:00:21;12.65;;;2.78;;
55813;SDS011;65494;42.818;0.404;2023-09-08T10:02:48;8.60;;;2.30;;
55813;SDS011;65494;42.818;0.404;2023-09-08T10:05:14;17.00;;;2.60;;
55813;SDS011;65494;42.818;0.404;2023-09-08T10:07:40;12.93;;;2.45;;
55813;SDS011;65494;42.818;0.404;2023-09-08T10:10:07;13.30;;;2.45;;
55813;SDS011;65494;42.818;0.404;2023-09-08T10:12:34;11.23;;;2.30;;
55813;SDS011;65494;42.818;0.404;2023-09-08T10:15:02;13.98;;;2.35;;
55813;SDS011;65494;42.818;0.404;2023-09-08T10:17:30;8.70;;;2.08;;
55813;SDS011;65494;42.818;0.404;2023-09-08T10:19:57;14.50;;;2.60;;
55813;SDS011;65494;42.818;0.404;2023-09-08T10:22:29;10.77;;;2.78;;
55813;SDS011;65494;42.818;0.404;2023-09-08T10:24:56;14.32;;;2.90;;
55813;SDS011;65494;42.818;0.404;2023-09-08T10:27:23;11.43;;;2.92;;
55813;SDS011;65494;42.818;0.404;2023-09-08T10:29:49;10.70;;;2.67;;
55813;SDS011;65494;42.818;0.404;2023-09-08T10:32:16;15.52;;;3.00;;
55813;SDS011;65494;42.818;0.404;2023-09-08T10:34:43;15.32;;;2.38;;
55813;SDS011;65494;42.818;0.404;2023-09-08T10:37:24;14.43;;;2.50;;
55813;SDS011;65494;42.818;0.404;2023-09-08T10:39:54;10.32;;;2.88;;
55813;SDS011;65494;42.818;0.404;2023-09-08T10:42:21;16.73;;;2.90;;
55813;SDS011;65494;42.818;0.404;2023-09-08T10:47:19;13.85;;;2.42;;
55813;SDS011;65494;42.818;0.404;2023-09-08T10:49:45;20.50;;;2.90;;
55813;SDS011;65494;42.818;0.404;2023-09-08T10:52:12;17.83;;;2.60;;
55813;SDS011;65494;42.818;0.404;2023-09-08T10:54:42;22.65;;;3.05;;
55813;SDS011;65494;42.818;0.404;2023-09-08T10:57:14;17.50;;;2.47;;
55813;SDS011;65494;42.818;0.404;2023-09-08T11:05:03;20.45;;;2.95;;
55813;SDS011;65494;42.818;0.404;2023-09-08T11:07:30;15.13;;;3.80;;
55813;SDS011;65494;42.818;0.404;2023-09-08T11:09:57;16.90;;;3.08;;
55813;SDS011;65494;42.818;0.404;2023-09-08T11:12:25;10.40;;;2.67;;
55813;SDS011;65494;42.818;0.404;2023-09-08T11:14:52;24.23;;;2.90;;
55813;SDS011;65494;42.818;0.404;2023-09-08T11:17:18;12.45;;;2.40;;
55813;SDS011;65494;42.818;0.404;2023-09-08T11:19:49;19.73;;;3.08;;
55813;SDS011;65494;42.818;0.404;2023-09-08T11:22:16;16.20;;;2.42;;
55813;SDS011;65494;42.818;0.404;2023-09-08T11:24:43;11.52;;;2.35;;
55813;SDS011;65494;42.818;0.404;2023-09-08T11:27:09;14.98;;;2.58;;
55813;SDS011;65494;42.818;0.404;2023-09-08T11:29:35;19.30;;;3.42;;
55813;SDS011;65494;42.818;0.404;2023-09-08T11:32:02;16.45;;;2.22;;
55813;SDS011;65494;42.818;0.404;2023-09-08T11:34:31;12.30;;;2.88;;
55813;SDS011;65494;42.818;0.404;2023-09-08T11:36:57;15.00;;;2.80;;
55813;SDS011;65494;42.818;0.404;2023-09-08T11:39:23;18.45;;;2.47;;
55813;SDS011;65494;42.818;0.404;2023-09-08T11:41:51;14.98;;;2.60;;
55813;SDS011;65494;42.818;0.404;2023-09-08T11:44:18;13.50;;;2.63;;
55813;SDS011;65494;42.818;0.404;2023-09-08T11:46:45;20.55;;;3.00;;
55813;SDS011;65494;42.818;0.404;2023-09-08T11:49:13;19.55;;;2.78;;
55813;SDS011;65494;42.818;0.404;2023-09-08T11:51:39;9.57;;;2.22;;
55813;SDS011;65494;42.818;0.404;2023-09-08T11:54:05;13.43;;;2.38;;
55813;SDS011;65494;42.818;0.404;2023-09-08T11:56:31;11.90;;;2.53;;
55813;SDS011;65494;42.818;0.404;2023-09-08T11:58:58;17.23;;;3.05;;
55813;SDS011;65494;42.818;0.404;2023-09-08T12:01:24;16.15;;;2.60;;
55813;SDS011;65494;42.818;0.404;2023-09-08T12:03:54;12.90;;;3.10;;
55813;SDS011;65494;42.818;0.404;2023-09-08T12:06:23;12.45;;;2.25;;
55813;SDS011;65494;42.818;0.404;2023-09-08T12:08:50;12.70;;;2.38;;
55813;SDS011;65494;42.818;0.404;2023-09-08T12:11:16;17.05;;;3.10;;
55813;SDS011;65494;42.818;0.404;2023-09-08T12:13:42;10.98;;;2.55;;
55813;SDS011;65494;42.818;0.404;2023-09-08T12:16:18;15.52;;;3.03;;
55813;SDS011;65494;42.818;0.404;2023-09-08T12:18:44;11.60;;;2.85;;
55813;SDS011;65494;42.818;0.404;2023-09-08T12:21:10;17.85;;;3.22;;
55813;SDS011;65494;42.818;0.404;2023-09-08T12:23:52;20.15;;;2.88;;
55813;SDS011;65494;42.818;0.404;2023-09-08T12:26:18;12.65;;;2.42;;
55813;SDS011;65494;42.818;0.404;2023-09-08T12:28:44;22.00;;;2.63;;
55813;SDS011;65494;42.818;0.404;2023-09-08T12:31:11;15.23;;;2.45;;
55813;SDS011;65494;42.818;0.404;2023-09-08T12:33:38;19.67;;;2.97;;
55813;SDS011;65494;42.818;0.404;2023-09-08T12:38:36;19.13;;;2.90;;
55813;SDS011;65494;42.818;0.404;2023-09-08T12:41:03;17.45;;;2.65;;
55813;SDS011;65494;42.818;0.404;2023-09-08T12:43:29;23.88;;;3.03;;
55813;SDS011;65494;42.818;0.404;2023-09-08T12:45:55;16.05;;;2.30;;
55813;SDS011;65494;42.818;0.404;2023-09-08T12:48:21;16.02;;;2.45;;
55813;SDS011;65494;42.818;0.404;2023-09-08T12:50:48;19.13;;;2.40;;
55813;SDS011;65494;42.818;0.404;2023-09-08T12:53:14;21.20;;;4.00;;
55813;SDS011;65494;42.818;0.404;2023-09-08T12:55:41;19.35;;;2.67;;
55813;SDS011;65494;42.818;0.404;2023-09-08T12:58:07;19.08;;;2.95;;
55813;SDS011;65494;42.818;0.404;2023-09-08T13:00:34;9.80;;;2.38;;
55813;SDS011;65494;42.818;0.404;2023-09-08T13:03:00;14.68;;;2.38;;
55813;SDS011;65494;42.818;0.404;2023-09-08T13:05:27;19.88;;;2.75;;
55813;SDS011;65494;42.818;0.404;2023-09-08T13:07:53;17.85;;;2.88;;
55813;SDS011;65494;42.818;0.404;2023-09-08T13:10:19;10.82;;;2.67;;
55813;SDS011;65494;42.818;0.404;2023-09-08T13:12:45;15.23;;;3.10;;
55813;SDS011;65494;42.818;0.404;2023-09-08T13:15:13;18.70;;;2.90;;
55813;SDS011;65494;42.818;0.404;2023-09-08T13:17:39;13.82;;;2.78;;
55813;SDS011;65494;42.818;0.404;2023-09-08T13:20:07;13.15;;;2.45;;
55813;SDS011;65494;42.818;0.404;2023-09-08T13:22:33;16.83;;;2.85;;
55813;SDS011;65494;42.818;0.404;2023-09-08T13:24:59;13.52;;;2.35;;
55813;SDS011;65494;42.818;0.404;2023-09-08T13:27:25;16.55;;;2.85;;
55813;SDS011;65494;42.818;0.404;2023-09-08T13:29:54;16.75;;;2.78;;
55813;SDS011;65494;42.818;0.404;2023-09-08T13:32:33;12.32;;;3.05;;
55813;SDS011;65494;42.818;0.404;2023-09-08T13:34:59;15.13;;;3.20;;
55813;SDS011;65494;42.818;0.404;2023-09-08T13:37:25;17.58;;;3.13;;
55813;SDS011;65494;42.818;0.404;2023-09-08T13:39:51;13.52;;;3.05;;
55813;SDS011;65494;42.818;0.404;2023-09-08T13:42:17;12.02;;;2.40;;
55813;SDS011;65494;42.818;0.404;2023-09-08T13:44:43;13.07;;;2.95;;
55813;SDS011;65494;42.818;0.404;2023-09-08T13:47:10;17.73;;;2.67;;
55813;SDS011;65494;42.818;0.404;2023-09-08T13:49:36;21.20;;;3.30;;
55813;SDS011;65494;42.818;0.404;2023-09-08T13:52:02;21.00;;;2.80;;
55813;SDS011;65494;42.818;0.404;2023-09-08T13:54:28;14.90;;;3.13;;
55813;SDS011;65494;42.818;0.404;2023-09-08T13:56:58;12.80;;;2.85;;
55813;SDS011;65494;42.818;0.404;2023-09-08T13:59:25;15.27;;;2.42;;
55813;SDS011;65494;42.818;0.404;2023-09-08T14:01:51;15.65;;;3.00;;
55813;SDS011;65494;42.818;0.404;2023-09-08T14:04:19;14.60;;;3.28;;
55813;SDS011;65494;42.818;0.404;2023-09-08T14:06:47;15.45;;;2.58;;
55813;SDS011;65494;42.818;0.404;2023-09-08T14:09:14;16.27;;;3.15;;
55813;SDS011;65494;42.818;0.404;2023-09-08T14:11:40;11.93;;;2.78;;
55813;SDS011;65494;42.818;0.404;2023-09-08T14:14:06;10.73;;;2.85;;
55813;SDS011;65494;42.818;0.404;2023-09-08T14:16:33;11.35;;;2.33;;
55813;SDS011;65494;42.818;0.404;2023-09-08T14:19:00;9.90;;;2.42;;
55813;SDS011;65494;42.818;0.404;2023-09-08T14:21:26;12.90;;;2.50;;
55813;SDS011;65494;42.818;0.404;2023-09-08T14:23:52;15.52;;;2.75;;
55813;SDS011;65494;42.818;0.404;2023-09-08T14:26:19;21.23;;;3.10;;
55813;SDS011;65494;42.818;0.404;2023-09-08T14:28:45;13.05;;;3.03;;
55813;SDS011;65494;42.818;0.404;2023-09-08T14:31:13;8.98;;;3.30;;
55813;SDS011;65494;42.818;0.404;2023-09-08T14:33:39;12.32;;;2.97;;
55813;SDS011;65494;42.818;0.404;2023-09-08T14:36:05;13.05;;;3.15;;
55813;SDS011;65494;42.818;0.404;2023-09-08T14:38:32;12.35;;;3.10;;
55813;SDS011;65494;42.818;0.404;2023-09-08T14:40:59;14.20;;;3.00;;
55813;SDS011;65494;42.818;0.404;2023-09-08T14:43:25;10.45;;;2.78;;
55813;SDS011;65494;42.818;0.404;2023-09-08T14:45:52;10.10;;;2.85;;
55813;SDS011;65494;42.818;0.404;2023-09-08T14:48:18;15.02;;;3.05;;
55813;SDS011;65494;42.818;0.404;2023-09-08T14:50:44;12.57;;;3.33;;
55813;SDS011;65494;42.818;0.404;2023-09-08T14:53:10;11.10;;;3.05;;
55813;SDS011;65494;42.818;0.404;2023-09-08T14:55:37;15.73;;;2.95;;
55813;SDS011;65494;42.818;0.404;2023-09-08T14:58:04;15.38;;;3.30;;
55813;SDS011;65494;42.818;0.404;2023-09-08T15:00:30;13.70;;;2.75;;
55813;SDS011;65494;42.818;0.404;2023-09-08T15:02:56;12.50;;;2.95;;
55813;SDS011;65494;42.818;0.404;2023-09-08T15:05:22;11.30;;;3.10;;
55813;SDS011;65494;42.818;0.404;2023-09-08T15:07:48;16.02;;;2.95;;
55813;SDS011;65494;42.818;0.404;2023-09-08T15:10:14;11.73;;;2.97;;
55813;SDS011;65494;42.818;0.404;2023-09-08T15:12:41;8.98;;;2.95;;
55813;SDS011;65494;42.818;0.404;2023-09-08T15:15:07;12.45;;;2.83;;
55813;SDS011;65494;42.818;0.404;2023-09-08T15:17:33;10.30;;;3.10;;
55813;SDS011;65494;42.818;0.404;2023-09-08T15:19:59;14.18;;;3.10;;
55813;SDS011;65494;42.818;0.404;2023-09-08T15:22:25;18.02;;;3.47;;
55813;SDS011;65494;42.818;0.404;2023-09-08T15:24:51;14.70;;;3.05;;
55813;SDS011;65494;42.818;0.404;2023-09-08T15:27:18;15.93;;;3.03;;
55813;SDS011;65494;42.818;0.404;2023-09-08T15:29:44;13.27;;;3.30;;
55813;SDS011;65494;42.818;0.404;2023-09-08T15:32:10;13.50;;;3.15;;
55813;SDS011;65494;42.818;0.404;2023-09-08T15:34:36;13.10;;;2.70;;
55813;SDS011;65494;42.818;0.404;2023-09-08T15:37:02;8.05;;;3.00;;